This is the latest recevied weather packets stored in our database for station/object K7SFN. If no packets are shown the sender has not sent any weather packets the latest 10 day(s).
| Time | Temp. | Humidity | Pressure | Rain* | Wind** | Luminosity | Snow |
|---|---|---|---|---|---|---|---|
| 1777593904 | 20° C | 21% | 1015.7 hPa | 0 mm | - | - | - |
| 1777593005 | 21.11° C | 20% | 1015.7 hPa | 0 mm | - | - | - |
| 1777592105 | 21.67° C | 18% | 1015.8 hPa | 0 mm | - | - | - |
| 1777589704 | 22.22° C | 19% | 1016.1 hPa | 0 mm | - | - | - |
| 1777588504 | 21.67° C | 19% | 1016.4 hPa | 0 mm | - | - | - |
| 1777588204 | 21.67° C | 19% | 1016.6 hPa | 0 mm | - | - | - |
| 1777578604 | 20° C | 22% | 1018.2 hPa | 0 mm | - | - | - |
| 1777575304 | 20° C | 24% | 1018.8 hPa | 0 mm | - | - | - |
| 1777571404 | 17.78° C | 31% | 1019.3 hPa | 0 mm | - | - | - |
| 1777570205 | 16.67° C | 31% | 1019.3 hPa | 0 mm | - | - | - |
| 1777568404 | 16.11° C | 32% | 1019.3 hPa | 0 mm | - | - | - |
| 1777568104 | 16.11° C | 34% | 1019.3 hPa | 0 mm | - | - | - |
| 1777567505 | 15.56° C | 35% | 1019.3 hPa | 0 mm | - | - | - |
| 1777561804 | 10.56° C | 49% | 1019.2 hPa | 0 mm | - | - | - |
| 1777559704 | 7.78° C | 60% | 1019.7 hPa | 0 mm | - | - | - |
| 1777559104 | 6.67° C | 60% | 1019.7 hPa | 0 mm | - | - | - |
| 1777557604 | 3.89° C | 70% | 1019.9 hPa | 0 mm | - | - | - |
| 1777554905 | 2.22° C | 72% | 1019.4 hPa | 0 mm | - | - | - |
| 1777552504 | 2.78° C | 70% | 1019.3 hPa | 0 mm | - | - | - |
| 1777549504 | 2.78° C | 67% | 1019.3 hPa | 0 mm | - | - | - |
| 1777548904 | 2.78° C | 66% | 1019.3 hPa | 0 mm | - | - | - |
| 1777546804 | 3.33° C | 65% | 1019.3 hPa | 0 mm | - | - | - |
| 1777545304 | 3.89° C | 62% | 1019.2 hPa | 0 mm | - | - | - |
| 1777544704 | 3.89° C | 63% | 1019.2 hPa | 0 mm | - | - | - |
| 1777541704 | 5° C | 60% | 1019 hPa | 0 mm | - | - | - |
* Rain latest hour (hover to see other rain measurements)
** Current wind speed in m/s (hover to see current wind gust speed)